Time;durP1;ratioP1;P1;durP2;ratioP2;P2;SDS_P1;SDS_P2;PMS_P1;PMS_P2;Temp;Humidity;BMP_temperature;BMP_pressure;BME280_temperature;BME280_humidity;BME280_pressure;Samples;Min_cycle;Max_cycle;Signal;HPM_P1;HPM_P2
2021/07/15 00:02:11;;;;;;;15.27;9.63;;;;;;;22.66;100.00;101178.91;5021099;28;20421;-68
2021/07/15 00:04:37;;;;;;;15.20;9.00;;;;;;;22.65;100.00;101179.09;5024369;28;20407;-68
2021/07/15 00:07:02;;;;;;;17.70;9.47;;;;;;;22.65;100.00;101181.75;5014861;28;20425;-68
2021/07/15 00:09:28;;;;;;;13.83;10.47;;;;;;;22.53;100.00;101178.63;5015055;28;20177;-69
2021/07/15 00:11:53;;;;;;;20.00;10.67;;;;;;;22.52;100.00;101179.63;5017933;28;20280;-69
2021/07/15 00:14:21;;;;;;;15.30;9.80;;;;;;;22.50;100.00;101170.91;5017003;28;20648;-68
2021/07/15 00:16:54;;;;;;;16.73;9.73;;;;;;;22.50;100.00;101170.06;5012066;28;20174;-67
2021/07/15 00:19:23;;;;;;;23.90;9.70;;;;;;;22.52;100.00;101176.09;5012372;28;20511;-69
2021/07/15 00:21:49;;;;;;;12.03;9.27;;;;;;;22.48;100.00;101162.22;5014689;28;20539;-67
2021/07/15 00:24:17;;;;;;;23.20;10.80;;;;;;;22.41;100.00;101161.22;5015760;28;21009;-68
2021/07/15 00:26:43;;;;;;;13.47;9.50;;;;;;;22.41;100.00;101164.72;5024058;28;20442;-66
2021/07/15 00:29:09;;;;;;;14.70;8.43;;;;;;;22.39;100.00;101156.03;5009768;28;20417;-72
2021/07/15 00:31:34;;;;;;;14.40;9.60;;;;;;;22.45;100.00;101151.00;5011226;28;20938;-70
2021/07/15 00:34:00;;;;;;;13.63;8.70;;;;;;;22.47;100.00;101151.66;5015209;28;20269;-68
2021/07/15 00:36:25;;;;;;;17.37;9.57;;;;;;;22.45;100.00;101148.34;5011360;28;20169;-70
2021/07/15 00:38:51;;;;;;;15.60;8.97;;;;;;;22.44;100.00;101150.16;5012810;28;20232;-69
2021/07/15 00:41:16;;;;;;;18.63;9.80;;;;;;;22.37;100.00;101144.66;5012477;28;20194;-71
2021/07/15 00:43:42;;;;;;;23.00;9.20;;;;;;;22.43;100.00;101146.63;5010905;28;20640;-72
2021/07/15 00:46:07;;;;;;;17.90;9.77;;;;;;;22.35;100.00;101149.31;5014948;28;20707;-69
2021/07/15 00:48:33;;;;;;;12.13;10.10;;;;;;;22.31;100.00;101145.34;5019986;28;20186;-72
2021/07/15 00:50:58;;;;;;;13.33;8.87;;;;;;;22.33;100.00;101154.03;5010644;28;20623;-69
2021/07/15 00:53:25;;;;;;;14.33;8.70;;;;;;;22.33;100.00;101150.50;5006429;28;20160;-68
2021/07/15 00:55:50;;;;;;;18.33;8.63;;;;;;;22.33;100.00;101155.88;5007935;28;20170;-73
2021/07/15 00:58:17;;;;;;;25.27;10.13;;;;;;;22.32;100.00;101152.34;5010698;28;20780;-73
2021/07/15 01:00:45;;;;;;;15.67;9.70;;;;;;;22.31;100.00;101155.22;5014809;28;20680;-69
2021/07/15 01:03:12;;;;;;;14.00;8.57;;;;;;;22.26;100.00;101153.03;5010639;28;20414;-71
2021/07/15 01:05:58;;;;;;;17.97;9.40;;;;;;;22.20;100.00;101156.38;5009410;28;20452;-67
2021/07/15 01:08:24;;;;;;;15.03;8.90;;;;;;;22.15;100.00;101156.06;5010932;28;20464;-67
2021/07/15 01:11:05;;;;;;;14.23;9.43;;;;;;;22.02;100.00;101155.69;5010604;28;20588;-70
2021/07/15 01:13:43;;;;;;;18.17;9.70;;;;;;;21.92;100.00;101161.19;5013691;28;20793;-72
2021/07/15 01:16:42;;;;;;;12.03;8.20;;;;;;;21.86;100.00;101162.69;5017974;28;20467;-68
2021/07/15 01:19:52;;;;;;;16.77;10.00;;;;;;;21.81;100.00;101158.84;4988677;28;20428;-69
2021/07/15 01:22:28;;;;;;;13.30;9.20;;;;;;;21.76;100.00;101162.00;4997444;28;20401;-67
2021/07/15 01:25:30;;;;;;;13.53;9.50;;;;;;;21.70;100.00;101165.34;5022859;28;20422;-68
2021/07/15 01:28:05;;;;;;;16.57;10.87;;;;;;;21.64;100.00;101168.69;5001435;28;20405;-70
2021/07/15 01:30:33;;;;;;;16.93;9.83;;;;;;;21.56;100.00;101171.34;5010591;28;20440;-68
2021/07/15 01:33:17;;;;;;;16.57;9.80;;;;;;;21.57;100.00;101163.13;5009710;28;20453;-68
2021/07/15 01:35:48;;;;;;;12.77;9.30;;;;;;;21.46;100.00;101162.59;5010463;28;20397;-70
2021/07/15 01:38:14;;;;;;;13.30;9.73;;;;;;;21.41;100.00;101160.44;5014408;28;20456;-68
2021/07/15 01:40:51;;;;;;;12.50;10.00;;;;;;;21.33;100.00;101163.91;5007826;28;20887;-69
2021/07/15 01:43:25;;;;;;;16.00;10.40;;;;;;;21.41;100.00;101156.91;5006106;28;20417;-68
2021/07/15 01:45:51;;;;;;;13.03;9.23;;;;;;;21.40;100.00;101155.25;5009060;28;20401;-70
2021/07/15 01:48:18;;;;;;;13.67;9.77;;;;;;;21.41;100.00;101155.09;5006964;28;20868;-71
2021/07/15 01:50:44;;;;;;;15.20;9.83;;;;;;;21.35;100.00;101154.88;5007586;28;20187;-72
2021/07/15 01:53:10;;;;;;;14.30;9.43;;;;;;;21.30;100.00;101158.03;5010334;28;20421;-70
2021/07/15 01:55:38;;;;;;;18.43;9.77;;;;;;;21.31;100.00;101157.03;5014622;28;20253;-71
2021/07/15 01:58:07;;;;;;;17.83;9.90;;;;;;;21.21;100.00;101149.13;5025683;28;20421;-67
2021/07/15 02:00:34;;;;;;;15.23;10.27;;;;;;;21.13;100.00;101141.06;5010606;28;20488;-68
2021/07/15 02:03:02;;;;;;;15.10;8.80;;;;;;;21.06;100.00;101146.22;5007045;28;20854;-68
2021/07/15 02:05:28;;;;;;;15.03;9.90;;;;;;;21.09;100.00;101141.59;5013668;28;20416;-72
2021/07/15 02:07:54;;;;;;;10.93;9.20;;;;;;;21.12;100.00;101147.44;5009927;28;20476;-71
2021/07/15 02:10:24;;;;;;;18.73;9.30;;;;;;;21.05;100.00;101151.75;5010688;28;20424;-71
2021/07/15 02:12:50;;;;;;;16.07;10.33;;;;;;;21.05;100.00;101155.25;5013462;28;20409;-69
2021/07/15 02:15:16;;;;;;;10.40;8.53;;;;;;;21.06;100.00;101148.06;5013476;28;20421;-72
2021/07/15 02:17:43;;;;;;;20.20;9.77;;;;;;;21.08;100.00;101147.91;5012029;28;20517;-68
2021/07/15 02:20:12;;;;;;;12.30;9.40;;;;;;;21.05;100.00;101155.25;5014308;28;20450;-67
2021/07/15 02:22:39;;;;;;;20.30;8.53;;;;;;;21.03;100.00;101151.06;5008097;28;20941;-69
2021/07/15 02:25:06;;;;;;;17.10;9.60;;;;;;;20.96;100.00;101155.38;5014196;28;20417;-71
2021/07/15 02:27:34;;;;;;;15.50;8.17;;;;;;;21.04;100.00;101155.41;5015918;28;20421;-68
2021/07/15 02:30:00;;;;;;;16.37;9.43;;;;;;;21.10;100.00;101148.59;5013605;28;20409;-74
2021/07/15 02:32:26;;;;;;;15.33;10.07;;;;;;;21.08;100.00;101151.41;5013402;28;20543;-71
2021/07/15 02:34:58;;;;;;;13.13;9.23;;;;;;;21.15;100.00;101147.09;5016703;28;20424;-71
2021/07/15 02:37:30;;;;;;;14.87;9.70;;;;;;;21.12;100.00;101147.44;5013953;28;20162;-72
2021/07/15 02:39:55;;;;;;;18.10;9.70;;;;;;;21.05;100.00;101152.56;5013356;28;20408;-68
2021/07/15 02:42:21;;;;;;;11.83;8.80;;;;;;;20.97;100.00;101152.53;5010739;28;20409;-72
2021/07/15 02:44:48;;;;;;;13.73;10.43;;;;;;;20.94;100.00;101158.22;5013241;28;20705;-72
2021/07/15 02:47:14;;;;;;;14.87;11.00;;;;;;;20.91;100.00;101155.00;5013472;28;20405;-72
2021/07/15 02:49:41;;;;;;;16.83;11.00;;;;;;;20.80;100.00;101158.81;5012705;28;20417;-69
2021/07/15 02:52:08;;;;;;;19.87;13.00;;;;;;;20.82;100.00;101154.13;5013310;28;20189;-68
2021/07/15 02:54:36;;;;;;;16.50;11.80;;;;;;;20.85;100.00;101160.97;4999790;28;20827;-71
2021/07/15 02:57:05;;;;;;;16.73;10.93;;;;;;;20.89;100.00;101152.50;5013060;28;20429;-69
2021/07/15 02:59:47;;;;;;;20.80;11.40;;;;;;;20.91;100.00;101147.81;5012760;28;20402;-71
2021/07/15 03:02:21;;;;;;;19.30;12.57;;;;;;;20.89;100.00;101143.66;5004542;28;20409;-71
2021/07/15 03:05:06;;;;;;;24.50;12.80;;;;;;;20.84;100.00;101145.94;5000549;28;20398;-68
2021/07/15 03:07:36;;;;;;;18.53;11.23;;;;;;;20.83;100.00;101145.13;5018037;28;20447;-70
2021/07/15 03:10:04;;;;;;;19.00;12.13;;;;;;;20.89;100.00;101143.66;5012244;28;20413;-68
2021/07/15 03:12:39;;;;;;;25.80;13.13;;;;;;;20.87;100.00;101145.66;5011853;28;20492;-69
2021/07/15 03:15:06;;;;;;;22.10;11.53;;;;;;;20.93;100.00;101137.84;5016201;28;20404;-70
2021/07/15 03:17:36;;;;;;;16.27;12.20;;;;;;;20.93;100.00;101143.19;5007399;28;20425;-69
2021/07/15 03:20:08;;;;;;;19.93;11.47;;;;;;;21.00;100.00;101138.84;5011898;28;20409;-68
2021/07/15 03:22:36;;;;;;;26.53;12.10;;;;;;;20.96;100.00;101147.38;5011626;28;20412;-67
2021/07/15 03:25:05;;;;;;;20.87;11.50;;;;;;;20.99;100.00;101149.69;5015515;28;20550;-70
2021/07/15 03:27:34;;;;;;;23.43;11.17;;;;;;;21.03;100.00;101149.22;5012748;28;20505;-69
2021/07/15 03:30:01;;;;;;;15.93;11.60;;;;;;;20.95;100.00;101146.53;5012939;28;20424;-68
2021/07/15 03:32:28;;;;;;;16.77;11.43;;;;;;;20.95;100.00;101154.53;5012046;28;20448;-68
2021/07/15 03:34:54;;;;;;;19.30;12.30;;;;;;;20.91;100.00;101144.31;5012162;28;20419;-68
2021/07/15 03:37:20;;;;;;;22.50;13.60;;;;;;;20.93;100.00;101148.53;5014425;28;20786;-69
2021/07/15 03:39:48;;;;;;;21.00;12.77;;;;;;;20.95;100.00;101149.19;5002810;28;20175;-68
2021/07/15 03:42:15;;;;;;;21.07;13.53;;;;;;;20.83;100.00;101147.78;5008583;28;20413;-72
2021/07/15 03:44:41;;;;;;;18.60;12.93;;;;;;;20.83;100.00;101155.81;5022784;28;21264;-69
2021/07/15 03:47:07;;;;;;;19.97;15.60;;;;;;;20.89;100.00;101152.50;5016353;28;20515;-69
2021/07/15 03:49:33;;;;;;;21.00;14.77;;;;;;;20.88;100.00;101150.84;5011701;28;20458;-69
2021/07/15 03:51:59;;;;;;;20.20;13.27;;;;;;;20.89;100.00;101157.84;5012091;28;20251;-72
2021/07/15 03:54:26;;;;;;;17.17;12.90;;;;;;;20.92;100.00;101151.34;5009002;28;20448;-68
2021/07/15 03:56:53;;;;;;;19.47;11.70;;;;;;;20.95;100.00;101146.53;5018154;28;20432;-67
2021/07/15 03:59:20;;;;;;;16.43;11.67;;;;;;;20.93;100.00;101158.34;5005247;28;20428;-68
2021/07/15 04:01:55;;;;;;;16.00;11.70;;;;;;;20.95;100.00;101157.22;5011964;28;20409;-71
2021/07/15 04:04:24;;;;;;;16.53;11.80;;;;;;;21.02;100.00;101154.75;5011954;28;20441;-72
2021/07/15 04:06:50;;;;;;;21.60;11.97;;;;;;;20.99;100.00;101152.38;5019397;28;20460;-68
2021/07/15 04:09:17;;;;;;;23.57;13.00;;;;;;;20.99;100.00;101153.22;5011036;28;20436;-71
2021/07/15 04:11:46;;;;;;;15.50;10.77;;;;;;;21.06;100.00;101158.75;5011603;28;20455;-69
2021/07/15 04:14:21;;;;;;;16.30;11.43;;;;;;;21.15;100.00;101152.44;5010260;28;20468;-67
2021/07/15 04:17:05;;;;;;;14.90;10.90;;;;;;;21.24;100.00;101154.16;5021022;28;20414;-69
2021/07/15 04:19:33;;;;;;;18.30;11.77;;;;;;;21.31;100.00;101144.53;5010181;28;20431;-67
2021/07/15 04:22:00;;;;;;;11.83;9.50;;;;;;;21.35;100.00;101152.22;5011927;28;20431;-72
2021/07/15 04:24:27;;;;;;;15.50;12.03;;;;;;;21.32;100.00;101151.56;5011727;28;20775;-69
2021/07/15 04:26:54;;;;;;;16.20;10.67;;;;;;;21.46;100.00;101154.56;5011681;28;20919;-68
2021/07/15 04:29:21;;;;;;;20.83;10.50;;;;;;;21.54;100.00;101149.28;5013015;28;20417;-68
2021/07/15 04:32:14;;;;;;;16.03;10.67;;;;;;;21.64;100.00;101157.97;5010531;28;20456;-68
2021/07/15 04:34:42;;;;;;;17.33;10.40;;;;;;;21.74;100.00;101152.47;5010192;28;20866;-70
2021/07/15 04:37:08;;;;;;;12.90;9.57;;;;;;;21.87;100.00;101152.81;5010214;28;20405;-67
2021/07/15 04:39:35;;;;;;;34.07;11.97;;;;;;;21.86;100.00;101153.84;5001322;28;20417;-68
2021/07/15 04:42:05;;;;;;;18.67;10.00;;;;;;;21.93;100.00;101156.69;5023724;28;20427;-67
2021/07/15 04:44:33;;;;;;;15.97;9.40;;;;;;;22.04;100.00;101157.19;5010650;28;20413;-68
2021/07/15 04:47:00;;;;;;;19.60;9.53;;;;;;;22.08;100.00;101153.22;5042392;28;20417;-67
2021/07/15 04:49:26;;;;;;;19.87;9.17;;;;;;;22.11;100.00;101160.06;5010966;28;20394;-68
2021/07/15 04:51:55;;;;;;;18.10;9.30;;;;;;;22.23;100.00;101160.56;5021325;28;20929;-68
2021/07/15 04:54:22;;;;;;;13.10;9.20;;;;;;;22.28;100.00;101155.53;5014548;28;20414;-69
2021/07/15 04:56:48;;;;;;;15.80;10.20;;;;;;;22.34;100.00;101155.69;5009951;28;20421;-69
2021/07/15 04:59:14;;;;;;;16.40;9.13;;;;;;;22.32;100.00;101144.31;5009394;28;20420;-71
2021/07/15 05:01:40;;;;;;;16.63;9.93;;;;;;;22.43;100.00;101152.00;5011596;28;20459;-71
2021/07/15 05:04:06;;;;;;;13.07;8.93;;;;;;;22.54;100.00;101152.66;5010382;28;20510;-69
2021/07/15 05:06:31;;;;;;;14.70;9.30;;;;;;;22.71;100.00;101154.28;4997395;28;20483;-68
2021/07/15 05:08:57;;;;;;;17.00;9.80;;;;;;;22.85;100.00;101153.63;5011815;28;20170;-73
2021/07/15 05:11:22;;;;;;;19.93;9.07;;;;;;;22.98;100.00;101151.25;5010848;28;20214;-67
2021/07/15 05:13:49;;;;;;;18.07;8.47;;;;;;;23.06;100.00;101147.69;5010010;28;20178;-72
2021/07/15 05:16:14;;;;;;;14.70;8.83;;;;;;;23.18;100.00;101146.28;5011236;28;20166;-71
2021/07/15 05:18:40;;;;;;;12.40;8.70;;;;;;;23.24;100.00;101145.59;5008157;28;20418;-70
2021/07/15 05:21:05;;;;;;;14.20;8.70;;;;;;;23.34;100.00;101145.34;5010825;28;20261;-67
2021/07/15 05:23:31;;;;;;;11.43;8.27;;;;;;;23.42;100.00;101137.25;5010273;28;20201;-67
2021/07/15 05:25:57;;;;;;;13.73;8.33;;;;;;;23.53;100.00;101136.88;5010310;28;20193;-68
2021/07/15 05:28:23;;;;;;;12.27;7.13;;;;;;;23.64;100.00;101137.50;5017848;28;20169;-69
2021/07/15 05:30:49;;;;;;;13.03;6.63;;;;;;;23.73;100.00;101131.09;5004643;28;20529;-72
2021/07/15 05:33:15;;;;;;;10.07;6.90;;;;;;;23.84;100.00;101127.97;5027715;28;20997;-69
2021/07/15 05:35:42;;;;;;;20.17;8.10;;;;;;;23.99;100.00;101134.22;4995538;28;20237;-67
2021/07/15 05:38:08;;;;;;;15.87;7.67;;;;;;;24.08;100.00;101138.50;4996524;28;20424;-67
2021/07/15 05:40:34;;;;;;;14.27;7.13;;;;;;;24.15;100.00;101140.47;4999382;28;20537;-66
2021/07/15 05:43:00;;;;;;;9.20;6.70;;;;;;;24.21;100.00;101142.44;5008606;28;20484;-68
2021/07/15 05:45:26;;;;;;;19.70;8.50;;;;;;;24.30;100.00;101144.84;5000902;28;20174;-68
2021/07/15 05:47:53;;;;;;;21.77;8.70;;;;;;;24.38;100.00;101141.28;5005682;28;20419;-68
2021/07/15 05:50:18;;;;;;;17.17;8.47;;;;;;;24.54;100.00;101145.66;5013656;28;20924;-66
2021/07/15 05:52:44;;;;;;;13.40;7.80;;;;;;;24.57;100.00;101139.94;5013764;28;20417;-68
2021/07/15 05:55:10;;;;;;;10.13;7.23;;;;;;;24.67;100.00;101139.66;5004986;28;20175;-67
2021/07/15 05:57:36;;;;;;;11.33;6.43;;;;;;;24.72;100.00;101126.50;5001101;28;20163;-69
2021/07/15 06:00:05;;;;;;;9.80;6.13;;;;;;;24.83;100.00;101134.91;5007725;28;20431;-68
2021/07/15 06:02:31;;;;;;;12.63;6.77;;;;;;;24.97;100.00;101135.94;5004516;28;20256;-69
2021/07/15 06:04:56;;;;;;;10.57;6.20;;;;;;;25.12;100.00;101133.25;5013513;28;20409;-69
2021/07/15 06:07:22;;;;;;;12.07;6.30;;;;;;;25.24;100.00;101128.22;5011897;28;20186;-69
2021/07/15 06:09:47;;;;;;;9.20;5.50;;;;;;;25.35;100.00;101125.06;5013025;28;20252;-71
2021/07/15 06:12:13;;;;;;;13.80;6.93;;;;;;;25.49;100.00;101129.56;5005398;28;20194;-70
2021/07/15 06:14:38;;;;;;;14.97;6.27;;;;;;;25.61;100.00;101130.69;5013015;28;20241;-70
2021/07/15 06:17:04;;;;;;;10.30;5.40;;;;;;;25.72;100.00;101116.78;5033137;28;20171;-69
2021/07/15 06:19:30;;;;;;;7.47;5.07;;;;;;;25.84;100.00;101124.31;5010528;28;20555;-71
2021/07/15 06:21:56;;;;;;;17.13;5.63;;;;;;;25.98;100.00;101113.47;5015914;28;20174;-68
2021/07/15 06:24:21;;;;;;;12.60;6.27;;;;;;;26.10;100.00;101118.34;5012733;28;20174;-69
2021/07/15 06:26:48;;;;;;;14.27;5.93;;;;;;;26.28;100.00;101113.31;5013289;28;20228;-69
2021/07/15 06:29:14;;;;;;;12.70;5.43;;;;;;;26.35;100.00;101110.66;5013150;28;20197;-70
2021/07/15 06:31:40;;;;;;;8.50;5.47;;;;;;;26.44;100.00;101109.50;4999858;28;20821;-73
2021/07/15 06:34:05;;;;;;;12.10;5.20;;;;;;;26.67;100.00;101106.53;5007087;28;20458;-69
2021/07/15 06:36:32;;;;;;;7.70;4.83;;;;;;;26.77;100.00;101102.44;5013124;28;20448;-69
2021/07/15 06:38:58;;;;;;;11.10;5.50;;;;;;;26.82;100.00;101104.53;5012949;28;20186;-71
2021/07/15 06:41:26;;;;;;;7.37;5.27;;;;;;;26.95;100.00;101092.97;5014095;28;20417;-71
2021/07/15 06:43:51;;;;;;;7.93;4.30;;;;;;;27.07;100.00;101088.72;5019293;28;21419;-70
2021/07/15 06:46:17;;;;;;;10.53;4.83;;;;;;;27.13;100.00;101090.59;5013163;28;20405;-70
2021/07/15 06:48:43;;;;;;;10.80;5.47;;;;;;;27.20;100.00;101093.28;5012524;28;20604;-68
2021/07/15 06:51:09;;;;;;;8.03;4.97;;;;;;;27.31;100.00;101087.31;5012718;28;20193;-73
2021/07/15 06:53:35;;;;;;;11.03;6.03;;;;;;;27.31;100.00;101096.25;5019225;28;20206;-68
2021/07/15 06:56:01;;;;;;;10.60;5.30;;;;;;;27.46;100.00;101087.16;5011475;28;20421;-70
2021/07/15 06:58:28;;;;;;;9.37;5.80;;;;;;;27.59;100.00;101087.19;5010802;28;20182;-68
2021/07/15 07:00:57;;;;;;;13.50;6.30;;;;;;;27.74;100.00;101089.72;5011089;28;20410;-70
2021/07/15 07:03:27;;;;;;;8.97;3.93;;;;;;;27.78;100.00;101082.84;5015556;28;20413;-68
2021/07/15 07:05:53;;;;;;;12.60;6.13;;;;;;;27.83;100.00;101083.06;5011715;28;20474;-70
2021/07/15 07:08:20;;;;;;;9.67;3.90;;;;;;;27.90;100.00;101075.78;5005905;28;20457;-69
2021/07/15 07:10:45;;;;;;;19.43;5.70;;;;;;;28.00;100.00;101070.78;5011365;28;20499;-69
2021/07/15 07:13:12;;;;;;;8.73;4.50;;;;;;;28.07;100.00;101076.19;5017371;28;21002;-68
2021/07/15 07:15:37;;;;;;;11.03;4.60;;;;;;;28.18;100.00;101079.09;5012417;28;20509;-68
2021/07/15 07:18:03;;;;;;;9.10;5.07;;;;;;;28.24;100.00;101079.28;5007401;28;20174;-67
2021/07/15 07:20:29;;;;;;;6.90;4.60;;;;;;;28.24;100.00;101074.72;5013372;28;20186;-69
2021/07/15 07:22:54;;;;;;;12.47;4.67;;;;;;;28.24;100.00;101072.00;5010911;28;20648;-66
2021/07/15 07:25:20;;;;;;;7.80;4.33;;;;;;;28.30;100.00;101071.22;5010498;28;20171;-69
2021/07/15 07:27:46;;;;;;;8.10;3.87;;;;;;;28.42;100.00;101074.94;5010871;28;20170;-66
2021/07/15 07:30:15;;;;;;;8.97;3.87;;;;;;;28.37;100.00;101076.59;5009354;28;20585;-67
2021/07/15 07:32:41;;;;;;;9.20;4.50;;;;;;;28.40;100.00;101071.59;5008405;28;20540;-68
2021/07/15 07:35:07;;;;;;;9.37;5.17;;;;;;;28.41;100.00;101078.66;5011113;28;20456;-69
2021/07/15 07:37:33;;;;;;;8.83;4.80;;;;;;;28.41;100.00;101075.13;5011018;28;20409;-68
2021/07/15 07:40:01;;;;;;;7.50;4.47;;;;;;;28.47;100.00;101074.28;5010542;28;20504;-66
2021/07/15 07:42:26;;;;;;;15.40;8.07;;;;;;;28.50;100.00;101076.59;5010757;28;20511;-69
2021/07/15 07:44:53;;;;;;;13.70;5.37;;;;;;;28.55;100.00;101075.91;5009916;28;20495;-69
2021/07/15 07:47:19;;;;;;;9.70;6.07;;;;;;;28.62;100.00;101071.31;5008413;28;20171;-66
2021/07/15 07:49:44;;;;;;;11.30;6.57;;;;;;;28.67;100.00;101071.53;5014600;28;20417;-68
2021/07/15 07:52:10;;;;;;;13.20;5.27;;;;;;;28.74;100.00;101075.03;5010869;28;20554;-68
2021/07/15 07:54:35;;;;;;;8.43;5.00;;;;;;;28.77;100.00;101071.91;5008174;28;20609;-70
2021/07/15 07:57:01;;;;;;;9.67;4.60;;;;;;;28.84;100.00;101072.69;5006152;28;20182;-69
2021/07/15 07:59:27;;;;;;;8.77;4.87;;;;;;;28.86;100.00;101067.06;4998565;28;20163;-69
2021/07/15 08:01:52;;;;;;;10.10;4.67;;;;;;;28.96;100.00;101065.59;5006671;28;20174;-68
2021/07/15 08:04:19;;;;;;;13.30;4.40;;;;;;;29.14;100.00;101069.47;5009402;28;20608;-67
2021/07/15 08:06:47;;;;;;;11.43;4.07;;;;;;;29.23;100.00;101071.69;5010004;28;20181;-69
2021/07/15 08:09:15;;;;;;;11.80;5.57;;;;;;;29.32;100.00;101061.44;4992686;28;20998;-68
2021/07/15 08:11:45;;;;;;;9.00;4.10;;;;;;;29.41;100.00;101070.97;5009195;28;20511;-67
2021/07/15 08:14:10;;;;;;;10.93;4.67;;;;;;;29.49;100.00;101078.84;5009715;28;20508;-68
2021/07/15 08:16:36;;;;;;;7.87;4.07;;;;;;;29.56;100.00;101073.41;5014402;28;20519;-67
2021/07/15 08:19:02;;;;;;;8.40;3.80;;;;;;;29.61;100.00;101078.16;5009029;28;20169;-68
2021/07/15 08:21:30;;;;;;;7.23;4.43;;;;;;;29.58;100.00;101074.00;5010071;28;20170;-67
2021/07/15 08:23:56;;;;;;;7.53;3.87;;;;;;;29.54;100.00;101076.31;5009207;28;20405;-68
2021/07/15 08:26:22;;;;;;;6.97;3.10;;;;;;;29.64;100.00;101067.72;5011451;28;20417;-66
2021/07/15 08:28:47;;;;;;;9.13;3.30;;;;;;;29.80;100.00;101069.06;5009670;28;20405;-70
2021/07/15 08:31:13;;;;;;;8.63;3.40;;;;;;;29.93;100.00;101063.53;5009660;28;20190;-65
2021/07/15 08:33:39;;;;;;;27.17;24.17;;;;;;;29.95;100.00;101069.53;5009857;28;20559;-66
2021/07/15 08:36:04;;;;;;;12.20;3.83;;;;;;;29.99;100.00;101068.03;5008920;28;20174;-68
2021/07/15 08:38:30;;;;;;;8.40;3.83;;;;;;;30.15;100.00;101073.97;5008946;28;20289;-67
2021/07/15 08:40:55;;;;;;;8.77;4.30;;;;;;;30.15;100.00;101066.66;5007833;28;20197;-66
2021/07/15 08:43:22;;;;;;;7.23;3.57;;;;;;;30.23;100.00;101066.41;5008951;28;20189;-66
2021/07/15 08:45:49;;;;;;;12.80;4.57;;;;;;;30.18;100.00;101077.09;5012763;28;20266;-68
2021/07/15 08:48:15;;;;;;;6.93;3.90;;;;;;;30.25;100.00;101066.16;5007812;28;20405;-66
2021/07/15 08:50:41;;;;;;;9.53;3.67;;;;;;;30.42;100.00;101063.69;5007517;28;20413;-67
2021/07/15 08:53:07;;;;;;;18.43;5.70;;;;;;;30.46;100.00;101068.44;5010336;28;20464;-68
2021/07/15 08:58:18;;;;;;;7.00;4.57;;;;;;;30.47;100.00;101063.84;5015197;28;20407;-66
2021/07/15 09:00:45;;;;;;;9.90;4.30;;;;;;;30.53;100.00;101065.63;5013645;28;20752;-65
2021/07/15 09:03:12;;;;;;;12.87;4.50;;;;;;;30.51;100.00;101067.75;5012394;28;20417;-68
2021/07/15 09:05:38;;;;;;;9.17;4.47;;;;;;;30.55;100.00;101069.81;5014661;28;20503;-67
2021/07/15 09:08:05;;;;;;;6.97;4.10;;;;;;;30.55;100.00;101067.09;5009428;28;20420;-68
2021/07/15 09:10:31;;;;;;;5.70;3.80;;;;;;;30.63;100.00;101057.81;5010167;28;20406;-68
2021/07/15 09:12:59;;;;;;;8.17;3.80;;;;;;;30.47;100.00;101069.28;5019685;28;20417;-68
2021/07/15 09:15:25;;;;;;;11.30;4.43;;;;;;;30.47;100.00;101063.84;5009688;28;20483;-68
2021/07/15 09:17:51;;;;;;;12.17;4.57;;;;;;;30.43;100.00;101070.78;4996397;28;20407;-68
2021/07/15 09:20:19;;;;;;;9.70;3.80;;;;;;;30.42;100.00;101063.69;5008467;28;20436;-69
2021/07/15 09:23:03;;;;;;;8.40;4.40;;;;;;;30.50;100.00;101064.22;5021372;28;20169;-69
2021/07/15 09:25:41;;;;;;;9.67;4.53;;;;;;;30.38;100.00;101069.56;5013682;28;20503;-67
2021/07/15 09:28:09;;;;;;;14.27;4.03;;;;;;;30.41;100.00;101060.16;5022369;28;20928;-69
2021/07/15 09:30:35;;;;;;;6.73;4.10;;;;;;;30.50;100.00;101056.06;5026054;28;20412;-67
2021/07/15 09:33:03;;;;;;;5.50;4.13;;;;;;;30.60;100.00;101056.38;5024177;28;20448;-69
2021/07/15 09:35:43;;;;;;;8.30;3.77;;;;;;;30.65;100.00;101053.81;5023146;28;20182;-68
2021/07/15 09:38:10;;;;;;;7.50;3.17;;;;;;;30.68;100.00;101055.25;5013919;28;20885;-71
2021/07/15 09:41:00;;;;;;;6.47;4.37;;;;;;;30.65;100.00;101058.41;5013337;28;20421;-68
2021/07/15 09:43:28;;;;;;;6.60;3.83;;;;;;;30.65;100.00;101056.53;5019403;28;20416;-68
2021/07/15 09:45:56;;;;;;;9.23;4.40;;;;;;;30.58;100.00;101053.06;5027139;28;20420;-67
2021/07/15 09:48:24;;;;;;;5.50;3.70;;;;;;;30.61;100.00;101057.22;5022607;28;20428;-71
2021/07/15 09:50:52;;;;;;;8.00;4.40;;;;;;;30.62;100.00;101048.84;5012863;28;20441;-68
2021/07/15 09:53:22;;;;;;;8.37;4.27;;;;;;;30.72;100.00;101047.50;5013455;28;20524;-68
2021/07/15 09:56:00;;;;;;;7.23;4.13;;;;;;;30.78;100.00;101054.75;5014940;28;20409;-71
2021/07/15 09:58:31;;;;;;;10.10;4.77;;;;;;;30.78;100.00;101057.47;5023610;28;20405;-68
2021/07/15 10:01:05;;;;;;;8.80;4.40;;;;;;;30.81;100.00;101048.84;5014940;28;20456;-68
2021/07/15 10:03:52;;;;;;;6.53;4.50;;;;;;;30.98;100.00;101052.56;5017971;28;20416;-71
2021/07/15 10:06:21;;;;;;;8.03;4.30;;;;;;;30.91;100.00;101049.16;5013650;28;20393;-68
2021/07/15 10:08:52;;;;;;;10.30;6.00;;;;;;;30.92;100.00;101050.81;5012696;28;20413;-69
2021/07/15 10:11:20;;;;;;;7.20;4.73;;;;;;;31.34;100.00;101048.13;5010471;28;20476;-68
2021/07/15 10:13:58;;;;;;;10.33;5.17;;;;;;;32.15;100.00;101044.72;5013680;28;20425;-69
2021/07/15 10:16:30;;;;;;;11.50;4.67;;;;;;;32.67;100.00;101031.16;5019578;28;20413;-69
2021/07/15 10:18:56;;;;;;;9.67;4.70;;;;;;;33.05;100.00;101046.06;5013037;28;20401;-68
2021/07/15 10:21:26;;;;;;;9.30;5.13;;;;;;;32.86;100.00;101042.69;5012889;28;20424;-70
2021/07/15 10:23:52;;;;;;;8.17;5.57;;;;;;;32.76;100.00;101048.75;5016981;28;20968;-67
2021/07/15 10:26:18;;;;;;;11.97;5.17;;;;;;;32.61;100.00;101053.88;5018414;28;20421;-70
2021/07/15 10:28:47;;;;;;;6.60;4.00;;;;;;;32.56;100.00;101051.06;5012526;28;20907;-73
2021/07/15 10:31:13;;;;;;;9.40;4.30;;;;;;;32.13;100.00;101051.47;5027824;28;20620;-68
2021/07/15 10:33:41;;;;;;;9.70;4.17;;;;;;;31.85;100.00;101047.53;5012133;28;20457;-70
2021/07/15 10:36:11;;;;;;;8.63;5.13;;;;;;;31.70;100.00;101050.69;5025421;28;21067;-68
2021/07/15 10:38:44;;;;;;;6.70;4.20;;;;;;;31.65;100.00;101057.88;5013727;28;20422;-69
2021/07/15 10:41:11;;;;;;;11.07;6.90;;;;;;;31.70;100.00;101056.13;5012860;28;20758;-70
2021/07/15 10:43:38;;;;;;;9.10;5.00;;;;;;;31.64;100.00;101048.91;5039459;28;20444;-69
2021/07/15 10:46:04;;;;;;;8.80;4.93;;;;;;;31.48;100.00;101053.13;5012264;28;20445;-70
2021/07/15 10:48:33;;;;;;;7.80;4.40;;;;;;;31.56;100.00;101054.69;5012919;28;20409;-71
2021/07/15 10:51:00;;;;;;;7.13;3.87;;;;;;;31.48;100.00;101053.13;5012205;28;20818;-69
2021/07/15 10:53:28;;;;;;;5.73;3.83;;;;;;;31.40;100.00;101049.94;5042808;28;20511;-71
2021/07/15 10:55:54;;;;;;;9.13;4.33;;;;;;;31.30;100.00;101050.50;5019273;28;20814;-69
2021/07/15 10:58:43;;;;;;;10.30;4.87;;;;;;;31.27;100.00;101045.50;5012556;28;20516;-70
2021/07/15 11:01:11;;;;;;;7.17;3.73;;;;;;;31.26;100.00;101043.03;5020119;28;20773;-70
2021/07/15 11:03:36;;;;;;;10.87;4.73;;;;;;;31.27;100.00;101040.09;5012191;28;20413;-69
2021/07/15 11:06:02;;;;;;;5.23;3.53;;;;;;;31.30;100.00;101044.25;5011917;28;20409;-69
2021/07/15 11:08:43;;;;;;;12.40;4.70;;;;;;;31.35;100.00;101041.63;5011774;28;20162;-71
2021/07/15 11:11:09;;;;;;;7.10;3.90;;;;;;;31.41;100.00;101038.00;5011910;28;20448;-71
2021/07/15 11:13:34;;;;;;;7.20;4.33;;;;;;;31.50;100.00;101025.72;5011581;28;20412;-69
2021/07/15 11:16:03;;;;;;;5.87;4.40;;;;;;;31.57;100.00;101031.88;5012481;28;20529;-69
2021/07/15 11:18:34;;;;;;;10.03;4.80;;;;;;;31.51;100.00;101027.38;5024772;28;20188;-71